createdAt,value
2023-01-01T19:41:48.305Z,8.40
2023-01-01T19:44:19.881Z,8.30
2023-01-01T19:46:50.377Z,8.60
2023-01-01T19:49:17.507Z,8.90
2023-01-01T19:51:44.611Z,9.10
2023-01-01T19:54:11.846Z,9.20
2023-01-01T19:56:38.986Z,9.30
2023-01-01T19:59:06.051Z,9.40
2023-01-01T20:01:33.084Z,9.40
2023-01-01T20:04:00.668Z,9.40
2023-01-01T20:06:27.844Z,9.30
2023-01-01T20:08:54.933Z,9.20
2023-01-01T20:11:22.605Z,9.20
2023-01-01T20:13:49.584Z,9.10
2023-01-01T20:16:16.843Z,9.00
2023-01-01T20:18:43.836Z,9.00
2023-01-01T20:21:29.128Z,8.90
2023-01-01T20:23:56.267Z,8.90
2023-01-01T20:26:25.498Z,8.80
2023-01-01T20:29:11.604Z,8.80
2023-01-01T20:31:38.809Z,8.70
2023-01-01T20:34:06.134Z,8.70
2023-01-01T20:36:51.889Z,8.70
2023-01-01T20:39:18.826Z,8.60
2023-01-01T20:41:46.095Z,8.60
2023-01-01T20:44:13.329Z,8.50
2023-01-01T20:46:41.203Z,8.50
2023-01-01T20:49:08.485Z,8.40
2023-01-01T20:51:35.396Z,8.40
2023-01-01T20:54:02.461Z,8.40
2023-01-01T20:56:30.241Z,8.30
2023-01-01T20:59:00.386Z,8.30
2023-01-01T21:01:32.277Z,8.20
2023-01-01T21:03:59.237Z,8.20
2023-01-01T21:06:26.223Z,8.20
2023-01-01T21:08:53.363Z,8.20
2023-01-01T21:11:20.718Z,8.10
2023-01-01T21:13:48.878Z,8.10
2023-01-01T21:16:37.587Z,8.10
2023-01-01T21:19:09.414Z,8.10
2023-01-01T21:21:46.586Z,8.10
2023-01-01T21:24:27.901Z,8.10
2023-01-01T21:27:24.199Z,8.00
2023-01-01T21:29:54.105Z,8.00
2023-01-01T21:32:39.736Z,7.90
2023-01-01T21:35:37.780Z,7.90
2023-01-01T21:38:17.745Z,7.80
2023-01-01T21:41:19.645Z,7.80
2023-01-01T21:43:51.037Z,7.80
2023-01-01T21:46:40.853Z,7.70
2023-01-01T21:49:33.816Z,7.70
2023-01-01T21:52:02.302Z,7.70
2023-01-01T21:54:37.557Z,7.70
2023-01-01T21:57:18.765Z,7.70
2023-01-01T21:59:50.714Z,7.70
2023-01-01T22:02:39.385Z,7.70
2023-01-01T22:05:31.256Z,7.70
2023-01-01T22:07:59.430Z,7.70
2023-01-01T22:10:34.758Z,7.70
2023-01-01T22:13:02.344Z,7.70
2023-01-01T22:15:38.426Z,7.70
2023-01-01T22:18:24.497Z,7.70
2023-01-01T22:20:51.997Z,7.70
2023-01-01T22:23:27.635Z,7.80
2023-01-01T22:25:54.992Z,7.80
2023-01-01T22:28:28.030Z,7.70
2023-01-01T22:30:59.854Z,7.70
2023-01-01T22:33:39.607Z,7.70
2023-01-01T22:36:31.371Z,7.70
2023-01-01T22:39:04.719Z,7.70
2023-01-01T22:41:31.796Z,7.70
2023-01-01T22:44:04.293Z,7.70
2023-01-01T22:46:37.778Z,7.60
2023-01-01T22:49:34.096Z,7.60
2023-01-01T22:52:03.423Z,7.50
2023-01-01T22:54:30.353Z,7.50
2023-01-01T22:56:57.254Z,7.40
2023-01-01T22:59:24.140Z,7.40
2023-01-01T23:01:51.131Z,7.30
2023-01-01T23:04:18.079Z,7.20
2023-01-01T23:06:45.224Z,7.20
2023-01-01T23:09:12.623Z,7.20
2023-01-01T23:11:40.039Z,7.10
2023-01-01T23:14:25.712Z,7.10
2023-01-01T23:16:52.758Z,7.10
2023-01-01T23:19:19.808Z,7.10
2023-01-01T23:21:47.055Z,7.00
2023-01-01T23:24:19.941Z,7.00
2023-01-01T23:26:48.648Z,7.00
2023-01-01T23:29:16.677Z,7.00
2023-01-01T23:31:45.479Z,7.00
2023-01-01T23:34:12.852Z,7.00
2023-01-01T23:36:40.599Z,7.00
2023-01-01T23:39:07.885Z,7.00
2023-01-01T23:41:34.934Z,7.00
2023-01-01T23:44:02.369Z,7.00
2023-01-01T23:46:29.461Z,7.00
2023-01-01T23:48:56.581Z,7.00
2023-01-01T23:51:23.512Z,6.90
2023-01-01T23:53:50.750Z,6.90
2023-01-01T23:56:17.794Z,6.90
2023-01-01T23:58:45.241Z,6.90
